Time;durP1;ratioP1;P1;durP2;ratioP2;P2;SDS_P1;SDS_P2;PMS_P1;PMS_P2;Temp;Humidity;BMP_temperature;BMP_pressure;BME280_temperature;BME280_humidity;BME280_pressure;Samples;Min_cycle;Max_cycle;Signal;HPM_P1;HPM_P2
2022/08/23 00:00:46;;;;;;;12.30;4.22;;;;;;;19.15;68.35;101175.59;6180126;23;20415;-70
2022/08/23 00:03:23;;;;;;;10.38;4.60;;;;;;;19.14;68.29;101176.69;6181669;23;20362;-69
2022/08/23 00:05:57;;;;;;;13.65;4.28;;;;;;;19.07;68.82;101176.16;6182912;23;20012;-70
2022/08/23 00:08:32;;;;;;;8.70;4.28;;;;;;;19.09;68.75;101177.50;6181953;23;20028;-70
2022/08/23 00:11:05;;;;;;;7.22;3.90;;;;;;;18.99;69.26;101172.03;6182835;23;20497;-70
2022/08/23 00:13:40;;;;;;;9.25;4.45;;;;;;;19.03;69.20;101173.13;6182403;23;20457;-70
2022/08/23 00:16:14;;;;;;;10.65;4.15;;;;;;;19.05;69.15;101168.22;6182034;23;20378;-70
2022/08/23 00:18:41;;;;;;;13.70;4.40;;;;;;;18.97;70.51;101162.44;6182871;23;20015;-69
2022/08/23 00:21:06;;;;;;;10.32;4.43;;;;;;;19.01;69.44;101169.84;6184299;23;20075;-71
2022/08/23 00:23:41;;;;;;;8.73;4.82;;;;;;;18.93;69.98;101173.97;6183980;23;20008;-70
2022/08/23 00:26:09;;;;;;;8.45;4.80;;;;;;;18.84;70.52;101166.50;6182410;23;20059;-70
2022/08/23 00:28:35;;;;;;;11.02;4.53;;;;;;;18.90;70.24;101168.19;6182934;23;20084;-70
2022/08/23 00:31:02;;;;;;;10.50;4.50;;;;;;;18.90;70.63;101166.28;6182895;23;20022;-70
2022/08/23 00:33:28;;;;;;;9.95;4.70;;;;;;;18.85;70.53;101160.78;6182344;23;20009;-70
2022/08/23 00:35:53;;;;;;;9.93;4.47;;;;;;;18.83;71.18;101160.22;6158135;23;20001;-70
2022/08/23 00:38:18;;;;;;;9.07;4.50;;;;;;;18.80;71.35;101168.16;6158070;23;20005;-70
2022/08/23 00:40:49;;;;;;;12.27;4.95;;;;;;;18.83;70.73;101164.88;6183603;23;20024;-70
2022/08/23 00:49:03;;;;;;;11.77;4.43;;;;;;;18.68;71.98;101174.72;6183982;23;20062;-70
2022/08/23 00:51:35;;;;;;;11.50;4.50;;;;;;;18.66;72.16;101176.06;6184459;23;20426;-70
2022/08/23 00:54:01;;;;;;;8.60;4.90;;;;;;;18.59;72.87;101174.41;6157629;23;20489;-69
2022/08/23 00:56:30;;;;;;;10.18;4.82;;;;;;;18.56;72.50;101177.69;6184109;23;20051;-70
2022/08/23 00:58:56;;;;;;;11.63;4.72;;;;;;;18.53;73.07;101175.50;6184671;23;20005;-70
2022/08/23 01:01:22;;;;;;;10.10;4.90;;;;;;;18.44;73.81;101166.16;6181704;23;20012;-70
2022/08/23 01:03:54;;;;;;;9.05;4.60;;;;;;;18.40;73.78;101186.97;6183119;23;20012;-70
2022/08/23 01:06:48;;;;;;;12.57;5.00;;;;;;;18.46;74.12;101180.41;6182863;23;20028;-70
2022/08/23 01:09:18;;;;;;;10.88;4.35;;;;;;;18.41;75.37;101177.66;6151932;23;20044;-70
2022/08/23 01:12:00;;;;;;;9.40;4.65;;;;;;;18.37;76.16;101182.03;6153661;23;20009;-69
2022/08/23 01:14:42;;;;;;;10.30;4.93;;;;;;;18.38;77.20;101176.28;6154742;23;20048;-70
2022/08/23 01:17:10;;;;;;;;;;;;;;;18.52;73.52;101176.59;6153893;23;20008;-70
2022/08/23 01:19:40;;;;;;;12.43;4.95;;;;;;;18.31;77.25;101172.16;6154211;23;19915;-69
2022/08/23 01:22:26;;;;;;;10.60;4.78;;;;;;;18.28;77.81;101175.44;6154404;23;20497;-69
2022/08/23 01:24:53;;;;;;;10.73;4.93;;;;;;;18.27;79.12;101176.50;6177923;23;20002;-70
2022/08/23 01:27:19;;;;;;;8.73;4.95;;;;;;;18.23;80.48;101182.53;6152608;23;20041;-70
2022/08/23 01:29:45;;;;;;;11.65;4.70;;;;;;;18.23;78.97;101182.53;6152804;23;20008;-69
2022/08/23 01:32:12;;;;;;;11.48;4.50;;;;;;;18.24;80.39;101186.13;6156664;23;20489;-70
2022/08/23 01:34:37;;;;;;;13.20;5.22;;;;;;;18.20;79.96;101190.47;6156299;23;20006;-70
2022/08/23 01:37:07;;;;;;;9.73;4.60;;;;;;;18.13;80.50;101193.47;6155841;23;20502;-69
2022/08/23 01:39:33;;;;;;;12.88;4.63;;;;;;;18.05;81.56;101183.81;6154342;23;20056;-70
2022/08/23 01:41:58;;;;;;;10.68;4.70;;;;;;;18.03;82.01;101193.41;6154341;23;20073;-70
2022/08/23 01:44:25;;;;;;;9.70;4.70;;;;;;;18.05;83.11;101192.03;6153079;23;20029;-69
2022/08/23 01:46:50;;;;;;;12.07;4.50;;;;;;;18.01;83.60;101187.38;6155746;23;20125;-70
2022/08/23 01:49:16;;;;;;;8.35;4.50;;;;;;;17.93;86.23;101190.63;6155289;23;20072;-70
2022/08/23 01:51:41;;;;;;;12.30;4.50;;;;;;;17.97;87.66;101195.31;6155991;23;20056;-69
2022/08/23 01:54:07;;;;;;;7.25;4.53;;;;;;;17.91;88.80;101196.38;6179769;23;20036;-69
2022/08/23 01:56:33;;;;;;;12.32;4.30;;;;;;;17.89;87.68;101188.41;6154772;23;20013;-69
2022/08/23 01:58:59;;;;;;;11.93;4.63;;;;;;;17.90;87.20;101191.97;6156193;23;20012;-70
2022/08/23 02:01:24;;;;;;;10.20;4.68;;;;;;;17.94;87.87;101184.06;6153349;23;20002;-70
2022/08/23 02:03:50;;;;;;;10.90;4.47;;;;;;;17.99;84.99;101186.81;6155760;23;20375;-70
2022/08/23 02:06:15;;;;;;;11.73;4.60;;;;;;;17.93;88.92;101182.41;6154091;23;20060;-70
2022/08/23 02:11:27;;;;;;;8.57;5.10;;;;;;;17.94;86.59;101184.88;6185527;23;20071;-70
2022/08/23 02:13:55;;;;;;;8.40;4.65;;;;;;;17.96;89.02;101182.69;6159539;23;20010;-70
2022/08/23 02:16:26;;;;;;;11.27;4.88;;;;;;;17.92;87.21;101187.06;6184828;23;20391;-70
2022/08/23 02:18:54;;;;;;;10.38;4.93;;;;;;;17.94;85.59;101198.56;6183833;23;20031;-70
2022/08/23 02:21:19;;;;;;;10.15;5.25;;;;;;;17.94;85.31;101192.28;6184836;23;20078;-70
2022/08/23 02:23:45;;;;;;;10.73;5.10;;;;;;;17.89;86.86;101188.41;6185521;23;20419;-70
2022/08/23 02:26:14;;;;;;;9.20;5.40;;;;;;;17.91;89.37;101190.91;6185370;23;20005;-69
2022/08/23 02:28:39;;;;;;;10.93;5.28;;;;;;;18.00;86.33;101188.47;6185296;23;20009;-70
2022/08/23 02:31:06;;;;;;;9.32;5.22;;;;;;;18.00;85.86;101177.53;6185835;23;20001;-70
2022/08/23 02:33:31;;;;;;;9.73;5.13;;;;;;;17.96;90.63;101176.41;6159178;23;20016;-70
2022/08/23 02:35:57;;;;;;;9.05;5.05;;;;;;;17.93;89.45;101179.69;6158650;23;20335;-69
2022/08/23 02:38:22;;;;;;;11.20;4.85;;;;;;;17.91;87.45;101179.13;6185383;23;20327;-70
2022/08/23 02:40:48;;;;;;;8.52;4.90;;;;;;;17.92;89.93;101186.22;6185407;23;20008;-70
2022/08/23 02:43:13;;;;;;;9.10;5.15;;;;;;;17.96;86.96;101181.88;6185772;23;20012;-69
2022/08/23 02:45:39;;;;;;;10.02;5.38;;;;;;;17.94;88.21;101178.59;6184545;23;20080;-70
2022/08/23 02:48:05;;;;;;;12.00;4.85;;;;;;;17.88;87.92;101178.53;6185398;23;20354;-69
2022/08/23 02:50:30;;;;;;;10.10;5.18;;;;;;;17.96;87.58;101187.34;6184637;23;20028;-70
2022/08/23 02:52:56;;;;;;;13.93;5.57;;;;;;;17.90;87.25;101189.25;6185520;23;20008;-70
2022/08/23 02:55:22;;;;;;;13.23;5.53;;;;;;;17.93;88.56;101187.88;6184980;23;20005;-70
2022/08/23 02:57:48;;;;;;;11.68;5.72;;;;;;;17.88;90.52;101192.22;6185179;23;20088;-70
2022/08/23 03:00:15;;;;;;;12.45;6.05;;;;;;;17.95;89.28;101196.66;6184744;23;20005;-70
2022/08/23 03:02:41;;;;;;;12.98;5.45;;;;;;;17.92;88.78;101198.03;6182614;23;20013;-70
2022/08/23 03:05:08;;;;;;;13.15;5.60;;;;;;;17.91;89.54;101199.09;6184519;23;20447;-70
2022/08/23 03:07:34;;;;;;;7.70;5.30;;;;;;;17.91;89.66;101206.50;6184535;23;20005;-69
2022/08/23 03:09:59;;;;;;;12.27;5.65;;;;;;;17.85;89.64;101200.16;6183748;23;20032;-69
2022/08/23 03:12:25;;;;;;;15.45;5.75;;;;;;;17.88;89.98;101202.34;6184803;23;20005;-69
2022/08/23 03:14:51;;;;;;;10.25;6.00;;;;;;;17.82;90.85;101203.41;6159078;23;20017;-69
2022/08/23 03:17:17;;;;;;;11.85;5.90;;;;;;;17.78;91.39;101207.75;6185078;23;20068;-69
2022/08/23 03:19:43;;;;;;;11.32;6.28;;;;;;;17.74;91.49;101203.88;6185085;23;20024;-69
2022/08/23 03:22:08;;;;;;;12.18;5.88;;;;;;;17.76;92.61;101208.03;6158886;23;20016;-70
2022/08/23 03:24:35;;;;;;;11.50;6.43;;;;;;;17.76;91.25;101204.47;6158091;23;20013;-69
2022/08/23 03:27:01;;;;;;;10.73;6.47;;;;;;;17.79;92.12;101214.88;6158989;23;20304;-70
2022/08/23 03:29:26;;;;;;;9.90;5.90;;;;;;;17.74;94.27;101210.22;6158096;23;20012;-69
2022/08/23 03:31:54;;;;;;;13.68;6.93;;;;;;;17.77;93.85;101214.31;6158918;23;20013;-70
2022/08/23 03:34:20;;;;;;;14.40;6.65;;;;;;;17.79;93.32;101209.41;6184593;23;20014;-69
2022/08/23 03:36:45;;;;;;;11.82;6.60;;;;;;;17.81;93.80;101205.31;6184848;23;20004;-70
2022/08/23 03:39:11;;;;;;;10.40;6.55;;;;;;;17.91;90.63;101210.06;6157906;23;20009;-69
2022/08/23 03:41:36;;;;;;;12.75;6.70;;;;;;;17.91;91.98;101212.78;6158543;23;20027;-70
2022/08/23 03:44:02;;;;;;;15.57;7.00;;;;;;;17.93;93.22;101209.78;6185003;23;20001;-69
2022/08/23 03:46:27;;;;;;;12.95;6.90;;;;;;;17.89;93.57;101215.81;6184468;23;20005;-70
2022/08/23 03:48:56;;;;;;;11.95;6.47;;;;;;;17.89;91.91;101207.59;6184098;23;20333;-70
2022/08/23 03:51:22;;;;;;;16.25;7.00;;;;;;;17.92;91.24;101211.72;6157604;23;20020;-70
2022/08/23 03:53:48;;;;;;;14.23;7.28;;;;;;;17.90;91.87;101202.94;6182724;23;20012;-69
2022/08/23 03:56:32;;;;;;;14.75;6.97;;;;;;;18.00;90.09;101210.38;6185035;23;20001;-70
2022/08/23 03:59:01;;;;;;;13.50;6.63;;;;;;;18.01;90.91;101214.75;6158254;23;20012;-69
2022/08/23 04:01:26;;;;;;;15.45;7.43;;;;;;;18.00;91.93;101222.16;6155828;23;20005;-69
2022/08/23 04:03:52;;;;;;;11.88;7.03;;;;;;;17.98;91.09;101218.88;6184734;23;20324;-69
2022/08/23 04:06:17;;;;;;;15.52;7.68;;;;;;;18.02;89.61;101210.94;6184582;23;20419;-70
2022/08/23 04:08:44;;;;;;;11.70;6.60;;;;;;;18.09;88.35;101219.72;6184015;23;20020;-70
2022/08/23 04:11:11;;;;;;;13.82;6.63;;;;;;;18.10;88.08;101215.91;6184358;23;20009;-70
2022/08/23 04:13:37;;;;;;;14.15;7.55;;;;;;;18.08;91.37;101215.34;6184111;23;20071;-70
2022/08/23 04:16:04;;;;;;;14.48;6.95;;;;;;;17.98;93.38;101224.34;6184865;23;20141;-70
2022/08/23 04:18:32;;;;;;;14.50;7.15;;;;;;;18.03;93.94;101229.84;6182672;23;20441;-70
2022/08/23 04:21:00;;;;;;;12.88;7.50;;;;;;;17.95;95.26;101221.28;6183704;23;20009;-70
2022/08/23 04:23:26;;;;;;;13.25;7.13;;;;;;;17.98;93.28;101221.59;6184432;23;20001;-70
2022/08/23 04:25:53;;;;;;;12.00;7.10;;;;;;;17.91;92.88;101222.94;6184710;23;20083;-70
2022/08/23 04:28:18;;;;;;;11.25;7.25;;;;;;;17.89;93.67;101225.94;6184859;23;20005;-70
2022/08/23 04:30:44;;;;;;;11.55;7.05;;;;;;;17.95;93.45;101229.50;6183721;23;20084;-69
2022/08/23 04:33:10;;;;;;;14.52;6.80;;;;;;;17.92;92.77;101238.25;6157927;23;20044;-70
2022/08/23 04:35:35;;;;;;;11.63;6.53;;;;;;;17.92;95.66;101235.50;6157962;23;20000;-70
2022/08/23 04:38:00;;;;;;;13.00;7.60;;;;;;;17.97;95.45;101241.03;6183214;23;20016;-69
2022/08/23 04:43:10;;;;;;;15.48;7.63;;;;;;;17.91;92.18;101239.38;6183250;23;20453;-70
2022/08/23 04:45:39;;;;;;;10.65;7.28;;;;;;;17.91;91.77;101244.84;6156711;23;20001;-70
2022/08/23 04:48:05;;;;;;;11.93;7.50;;;;;;;17.84;91.04;101243.09;6184867;23;20020;-70
2022/08/23 04:50:32;;;;;;;15.98;7.80;;;;;;;17.86;92.38;101240.94;6184481;23;20084;-69
2022/08/23 04:52:57;;;;;;;13.25;7.50;;;;;;;17.93;92.01;101245.38;6184315;23;20059;-70
2022/08/23 04:55:23;;;;;;;12.13;7.90;;;;;;;17.95;94.45;101245.94;6183195;23;20009;-69
2022/08/23 04:57:49;;;;;;;16.67;7.95;;;;;;;17.96;97.16;101253.06;6182555;23;20088;-70
2022/08/23 05:00:15;;;;;;;13.10;7.65;;;;;;;17.93;98.06;101253.59;6184324;23;20087;-70
2022/08/23 05:02:41;;;;;;;13.20;8.07;;;;;;;17.97;97.20;101252.81;6157035;23;20005;-69
2022/08/23 05:05:08;;;;;;;12.77;7.95;;;;;;;17.94;97.12;101252.53;6159295;23;20038;-69
2022/08/23 05:07:34;;;;;;;17.40;7.78;;;;;;;17.98;97.44;101254.47;6159361;23;20001;-69
2022/08/23 05:10:00;;;;;;;18.10;8.10;;;;;;;18.03;96.62;101259.13;6160243;23;20087;-70
2022/08/23 05:12:27;;;;;;;13.98;8.05;;;;;;;18.06;94.65;101255.88;6185435;23;20419;-70
2022/08/23 05:14:53;;;;;;;14.30;8.10;;;;;;;18.07;94.23;101254.75;6159621;23;20009;-69
2022/08/23 05:17:21;;;;;;;13.38;8.40;;;;;;;18.05;96.43;101257.75;6185832;23;20005;-69
2022/08/23 05:19:47;;;;;;;14.13;8.23;;;;;;;18.03;99.58;101256.41;6159806;23;20009;-70
2022/08/23 05:22:13;;;;;;;16.73;8.10;;;;;;;18.12;100.00;101256.72;6186494;23;20588;-70
2022/08/23 05:24:38;;;;;;;17.40;8.80;;;;;;;18.06;100.00;101255.88;6185617;23;20005;-69
2022/08/23 05:27:03;;;;;;;14.45;7.93;;;;;;;18.08;100.00;101250.94;6186051;23;20095;-70
2022/08/23 05:29:29;;;;;;;16.52;8.82;;;;;;;18.14;96.81;101260.84;6186291;23;20009;-70
2022/08/23 05:31:55;;;;;;;13.73;8.25;;;;;;;18.16;99.58;101257.81;6160052;23;20059;-69
2022/08/23 05:34:21;;;;;;;15.75;9.05;;;;;;;18.21;100.00;101260.59;6159953;23;20482;-70
2022/08/23 05:36:47;;;;;;;14.48;8.13;;;;;;;18.28;97.94;101265.84;6159225;23;20041;-70
2022/08/23 05:39:14;;;;;;;13.90;8.32;;;;;;;18.31;99.96;101268.03;6186372;23;20008;-69
2022/08/23 05:41:40;;;;;;;18.65;9.43;;;;;;;18.33;94.82;101279.56;6185605;23;20013;-69
2022/08/23 05:44:06;;;;;;;13.90;8.68;;;;;;;18.34;94.34;101282.03;6186245;23;20009;-70
2022/08/23 05:46:32;;;;;;;19.38;9.13;;;;;;;18.38;93.45;101287.81;6185603;23;20009;-70
2022/08/23 05:48:57;;;;;;;16.73;8.45;;;;;;;18.42;91.92;101299.88;6185917;23;20008;-70
2022/08/23 05:51:29;;;;;;;15.35;8.27;;;;;;;18.45;93.32;101302.09;6159830;23;20013;-70
2022/08/23 05:53:59;;;;;;;17.25;8.00;;;;;;;18.46;93.56;101306.47;6186255;23;20031;-71
2022/08/23 05:56:28;;;;;;;17.02;8.30;;;;;;;18.50;94.08;101299.38;6158831;23;20005;-71
2022/08/23 05:58:57;;;;;;;14.43;7.85;;;;;;;18.53;95.07;101304.31;6185959;23;20510;-70
2022/08/23 06:01:22;;;;;;;16.83;8.02;;;;;;;18.58;97.33;101304.34;6182909;23;20052;-70
2022/08/23 06:03:48;;;;;;;11.98;7.68;;;;;;;18.60;94.11;101304.91;6185386;23;20013;-69
2022/08/23 06:06:14;;;;;;;14.45;7.88;;;;;;;18.65;95.20;101300.53;6159172;23;20032;-70
2022/08/23 06:08:41;;;;;;;15.50;8.35;;;;;;;18.69;93.37;101299.72;6184774;23;20009;-69
2022/08/23 06:11:09;;;;;;;17.55;8.07;;;;;;;18.68;97.88;101305.47;6183962;23;20083;-70
2022/08/23 06:13:41;;;;;;;16.38;7.88;;;;;;;18.73;94.64;101300.00;6185537;23;20012;-70
2022/08/23 06:16:06;;;;;;;14.77;8.13;;;;;;;18.71;97.78;101299.44;6186149;23;20032;-69
2022/08/23 06:18:32;;;;;;;16.60;7.78;;;;;;;18.75;97.88;101297.81;6185284;23;20005;-70
2022/08/23 06:21:03;;;;;;;17.15;7.65;;;;;;;18.78;99.96;101303.59;6185631;23;20012;-70
2022/08/23 06:23:29;;;;;;;;;;;;;;;18.91;94.20;101313.25;6186448;23;20033;-70
2022/08/23 06:25:55;;;;;;;14.35;8.02;;;;;;;18.83;94.91;101311.00;6185345;23;20226;-70
2022/08/23 06:28:21;;;;;;;17.67;8.15;;;;;;;18.82;94.12;101311.28;6185444;23;20080;-70
2022/08/23 06:30:46;;;;;;;20.55;9.50;;;;;;;18.85;93.21;101314.31;6185655;23;20009;-70
2022/08/23 06:33:12;;;;;;;15.07;8.65;;;;;;;18.85;92.61;101311.56;6185911;23;20008;-70
2022/08/23 06:35:37;;;;;;;17.00;8.63;;;;;;;18.97;93.23;101314.09;6159213;23;20020;-70
2022/08/23 06:38:03;;;;;;;17.73;9.15;;;;;;;19.01;93.72;101312.47;6185345;23;20362;-70
2022/08/23 06:40:28;;;;;;;15.57;9.20;;;;;;;19.08;91.63;101321.25;6185514;23;20009;-70
2022/08/23 06:42:54;;;;;;;16.05;8.93;;;;;;;19.09;87.46;101311.91;6184966;23;20442;-70
2022/08/23 06:45:19;;;;;;;18.20;9.55;;;;;;;19.12;87.00;101316.84;6185725;23;20322;-70
2022/08/23 06:47:44;;;;;;;16.75;9.75;;;;;;;19.17;86.90;101310.56;6184998;23;20031;-70
2022/08/23 06:50:10;;;;;;;18.08;9.63;;;;;;;19.23;87.21;101320.44;6185743;23;20064;-69
2022/08/23 06:52:35;;;;;;;18.77;9.65;;;;;;;19.25;85.26;101311.97;6183820;23;20422;-70
2022/08/23 06:55:01;;;;;;;19.02;10.32;;;;;;;19.25;85.57;101304.56;6185792;23;20016;-70
2022/08/23 06:57:27;;;;;;;17.83;9.90;;;;;;;19.26;84.04;101308.94;6184746;23;20001;-70
2022/08/23 06:59:52;;;;;;;18.42;10.50;;;;;;;19.33;81.99;101302.38;6185333;23;20565;-70
2022/08/23 07:02:17;;;;;;;21.35;10.80;;;;;;;19.38;81.78;101316.09;6182677;23;20374;-70
2022/08/23 07:04:43;;;;;;;17.17;10.00;;;;;;;19.46;81.16;101310.03;6185146;23;20005;-69
2022/08/23 07:07:09;;;;;;;17.13;10.95;;;;;;;19.50;79.85;101302.91;6185440;23;20005;-70
2022/08/23 07:09:35;;;;;;;22.55;11.27;;;;;;;19.56;79.59;101307.31;6184977;23;20009;-70
2022/08/23 07:12:01;;;;;;;20.25;11.07;;;;;;;19.60;79.82;101304.84;6158613;23;20024;-70
2022/08/23 07:14:27;;;;;;;18.15;11.07;;;;;;;19.63;78.95;101310.59;6185466;23;20012;-70
2022/08/23 07:17:02;;;;;;;24.13;11.50;;;;;;;19.68;78.63;101311.72;6185273;23;20447;-70
2022/08/23 07:19:32;;;;;;;19.90;10.77;;;;;;;19.71;78.65;101316.66;6184888;23;20063;-70
2022/08/23 07:21:59;;;;;;;21.13;10.60;;;;;;;19.77;79.22;101315.53;6184831;23;20037;-70
2022/08/23 07:24:26;;;;;;;18.45;10.63;;;;;;;19.83;78.59;101322.72;6158247;23;20009;-70
2022/08/23 07:27:00;;;;;;;20.33;11.73;;;;;;;19.87;77.80;101323.81;6158013;23;20045;-70
2022/08/23 07:29:36;;;;;;;19.08;11.10;;;;;;;19.88;76.97;101325.44;6157906;23;20015;-70
2022/08/23 07:32:10;;;;;;;18.70;10.23;;;;;;;19.95;78.08;101331.47;6156627;23;20316;-70
2022/08/23 07:34:37;;;;;;;18.33;10.45;;;;;;;20.04;77.20;101331.75;6158136;23;20005;-71
2022/08/23 07:37:04;;;;;;;19.13;10.50;;;;;;;20.05;77.51;101327.91;6157628;23;20007;-71
2022/08/23 07:39:30;;;;;;;22.58;10.95;;;;;;;20.16;77.71;101335.00;6184210;23;20008;-70
2022/08/23 07:41:58;;;;;;;16.30;10.77;;;;;;;20.23;77.25;101337.50;6158607;23;20005;-70
2022/08/23 07:44:23;;;;;;;18.95;10.57;;;;;;;20.31;77.29;101339.66;6158637;23;20410;-70
2022/08/23 07:46:48;;;;;;;23.95;10.85;;;;;;;20.37;77.48;101332.22;6184916;23;20008;-71
2022/08/23 07:49:14;;;;;;;19.52;10.73;;;;;;;20.44;76.42;101342.91;6184281;23;20005;-71
2022/08/23 07:51:44;;;;;;;21.75;11.10;;;;;;;20.52;76.04;101345.09;6184799;23;20048;-73
2022/08/23 07:54:09;;;;;;;13.73;7.45;;;;;;;20.58;75.25;101337.63;6184650;23;20008;-71
2022/08/23 07:56:35;;;;;;;17.70;9.05;;;;;;;20.67;75.69;101345.06;6185032;23;20005;-72
2022/08/23 07:59:01;;;;;;;16.33;10.35;;;;;;;20.71;75.15;101348.91;6184003;23;20092;-72
2022/08/23 08:01:28;;;;;;;18.90;10.32;;;;;;;20.87;75.61;101343.34;6156167;23;20033;-72
2022/08/23 08:03:55;;;;;;;16.63;9.90;;;;;;;20.93;74.33;101350.47;6184192;23;20084;-75
2022/08/23 08:06:25;;;;;;;20.83;10.00;;;;;;;20.95;72.34;101348.25;6182267;23;20004;-70
2022/08/23 08:08:51;;;;;;;18.80;9.40;;;;;;;21.01;72.08;101349.84;6183662;23;20021;-68
2022/08/23 08:11:21;;;;;;;15.38;8.27;;;;;;;21.07;72.48;101350.66;6184628;23;20305;-70
2022/08/23 08:13:48;;;;;;;17.08;9.48;;;;;;;21.18;72.59;101352.25;6184201;23;20009;-69
2022/08/23 08:16:28;;;;;;;19.83;10.02;;;;;;;21.25;72.86;101357.44;6157054;23;20005;-71
2022/08/23 08:18:55;;;;;;;21.77;10.27;;;;;;;21.30;72.27;101357.38;6184643;23;20001;-69
2022/08/23 08:21:20;;;;;;;20.55;10.43;;;;;;;21.36;71.55;101364.53;6184777;23;20056;-69
2022/08/23 08:23:46;;;;;;;16.58;9.02;;;;;;;21.37;71.60;101363.41;6184722;23;20012;-68
2022/08/23 08:26:12;;;;;;;16.30;9.57;;;;;;;21.41;71.32;101372.75;6157878;23;20055;-69
2022/08/23 08:28:39;;;;;;;12.75;8.13;;;;;;;21.47;70.83;101361.69;6184884;23;20012;-68
2022/08/23 08:31:05;;;;;;;18.05;9.18;;;;;;;21.53;70.23;101355.06;6183929;23;20339;-70
2022/08/23 08:33:30;;;;;;;18.85;9.10;;;;;;;21.57;70.64;101359.75;6184815;23;20005;-69
2022/08/23 08:35:57;;;;;;;23.33;10.10;;;;;;;21.68;69.04;101359.63;6183605;23;20038;-70
2022/08/23 08:38:23;;;;;;;21.33;10.35;;;;;;;21.72;69.90;101364.28;6184767;23;20005;-68
2022/08/23 08:40:58;;;;;;;22.50;8.95;;;;;;;21.82;70.49;101365.31;6184539;23;20060;-70
2022/08/23 08:43:41;;;;;;;21.60;8.88;;;;;;;21.98;70.51;101358.53;6184368;23;20342;-70
2022/08/23 08:46:17;;;;;;;24.35;9.10;;;;;;;22.11;69.17;101365.31;6183021;23;20327;-68
2022/08/23 08:48:48;;;;;;;20.33;8.52;;;;;;;22.13;67.59;101369.44;6184197;23;20487;-68
2022/08/23 08:51:32;;;;;;;;;;;;;;;22.16;68.62;101372.72;6185323;23;20004;-68
2022/08/23 08:53:59;;;;;;;16.65;7.90;;;;;;;22.29;67.86;101367.34;6157644;23;19904;-68
2022/08/23 08:56:35;;;;;;;27.50;7.90;;;;;;;22.37;67.65;101378.88;6182591;23;20016;-70
2022/08/23 08:59:14;;;;;;;21.00;7.40;;;;;;;22.48;68.07;101380.44;6184431;23;20009;-68
2022/08/23 09:01:40;;;;;;;22.90;7.20;;;;;;;22.54;65.28;101383.94;6181249;23;20035;-70
2022/08/23 09:04:06;;;;;;;23.92;7.20;;;;;;;22.56;65.39;101381.72;6184446;23;20005;-70
2022/08/23 09:06:50;;;;;;;20.00;7.10;;;;;;;22.58;66.68;101383.03;6184296;23;20419;-70
2022/08/23 09:09:33;;;;;;;21.83;7.22;;;;;;;22.74;66.59;101385.66;6184120;23;20009;-67
2022/08/23 09:12:04;;;;;;;18.92;6.25;;;;;;;22.81;66.72;101386.09;6183971;23;20085;-69
2022/08/23 09:14:56;;;;;;;16.80;6.55;;;;;;;22.90;66.30;101383.50;6184643;23;20063;-69
2022/08/23 09:17:41;;;;;;;16.75;4.95;;;;;;;22.97;66.63;101381.22;6184193;23;20394;-68
2022/08/23 09:20:08;;;;;;;14.55;4.18;;;;;;;23.04;63.46;101381.66;6184138;23;20012;-69
2022/08/23 09:22:39;;;;;;;8.57;3.95;;;;;;;23.08;62.44;101384.66;6184627;23;20081;-69
2022/08/23 09:25:08;;;;;;;11.88;3.63;;;;;;;23.12;61.83;101392.06;6181436;23;20005;-68
2022/08/23 09:27:34;;;;;;;8.63;3.13;;;;;;;23.17;61.54;101385.66;6184172;23;20378;-68
2022/08/23 09:30:00;;;;;;;8.95;3.55;;;;;;;23.21;61.66;101391.41;6184003;23;20009;-68
2022/08/23 09:32:50;;;;;;;12.70;4.10;;;;;;;23.25;61.95;101392.44;6183528;23;20005;-69
2022/08/23 09:35:21;;;;;;;14.40;3.88;;;;;;;23.32;62.26;101392.91;6184046;23;20031;-67
2022/08/23 09:38:14;;;;;;;12.10;4.30;;;;;;;23.39;61.85;101398.06;6183032;23;20080;-68
2022/08/23 09:40:49;;;;;;;15.23;4.18;;;;;;;23.37;62.03;101390.09;6183855;23;20323;-67
2022/08/23 09:43:18;;;;;;;15.15;5.43;;;;;;;23.39;62.09;101384.25;6184063;23;20001;-69
2022/08/23 09:45:46;;;;;;;14.55;4.97;;;;;;;23.36;61.84;101386.47;6183595;23;20008;-67
2022/08/23 09:48:14;;;;;;;12.35;4.40;;;;;;;23.41;62.00;101382.81;6184692;23;20069;-70
2022/08/23 09:51:17;;;;;;;12.25;4.38;;;;;;;23.50;61.84;101381.03;6186226;23;20039;-68
2022/08/23 09:53:49;;;;;;;10.15;4.82;;;;;;;23.54;60.79;101384.03;6186269;23;20102;-68
2022/08/23 09:56:22;;;;;;;13.73;4.63;;;;;;;23.59;61.00;101375.66;6185371;23;20004;-69
2022/08/23 09:58:51;;;;;;;10.38;3.20;;;;;;;23.76;60.75;101383.38;6185042;23;20009;-68
2022/08/23 10:01:26;;;;;;;7.40;2.55;;;;;;;23.95;59.57;101380.63;6183340;23;20084;-69
2022/08/23 10:04:23;;;;;;;9.98;2.60;;;;;;;24.00;59.77;101382.47;6185173;23;20009;-67
2022/08/23 10:06:50;;;;;;;10.13;2.88;;;;;;;24.05;57.09;101374.91;6131500;23;20060;-71
2022/08/23 10:09:30;;;;;;;9.13;2.95;;;;;;;24.12;57.24;101374.50;6185594;23;20020;-70
2022/08/23 10:11:58;;;;;;;7.80;2.85;;;;;;;24.15;57.46;101368.38;6185749;23;20012;-68
2022/08/23 10:14:25;;;;;;;7.28;2.53;;;;;;;24.17;56.20;101376.34;6185229;23;20430;-68
2022/08/23 10:17:09;;;;;;;10.98;2.88;;;;;;;24.27;57.29;101369.84;6184851;23;20009;-68
2022/08/23 10:20:07;;;;;;;5.20;2.38;;;;;;;24.30;56.63;101369.22;6159531;23;20361;-68
2022/08/23 10:22:47;;;;;;;6.40;2.45;;;;;;;24.37;55.98;101364.13;6159643;23;20036;-69
2022/08/23 10:25:29;;;;;;;4.93;2.25;;;;;;;24.42;56.48;101375.06;6185543;23;20084;-70
2022/08/23 10:31:14;;;;;;;10.10;3.05;;;;;;;24.56;55.95;101362.06;6185446;23;20064;-69
2022/08/23 10:33:53;;;;;;;11.80;2.80;;;;;;;24.65;56.13;101369.66;6185358;23;20041;-69
2022/08/23 10:36:34;;;;;;;8.25;2.40;;;;;;;24.63;55.21;101366.41;6185947;23;20028;-69
2022/08/23 10:39:09;;;;;;;12.13;2.60;;;;;;;24.69;55.39;101370.69;6185502;23;20062;-69
2022/08/23 10:41:55;;;;;;;8.10;2.50;;;;;;;24.75;56.05;101366.69;6185368;23;20001;-68
2022/08/23 10:44:34;;;;;;;8.52;2.80;;;;;;;24.87;54.88;101364.22;6185661;23;20051;-69
2022/08/23 10:47:29;;;;;;;7.57;2.47;;;;;;;24.91;54.12;101362.47;6185508;23;20009;-71
2022/08/23 10:49:59;;;;;;;6.45;2.55;;;;;;;24.89;53.64;101358.38;6185123;23;20020;-68
2022/08/23 10:52:34;;;;;;;7.60;2.25;;;;;;;25.04;54.07;101348.91;6183770;23;20032;-69
2022/08/23 10:55:15;;;;;;;7.65;2.50;;;;;;;25.06;53.42;101352.19;6185482;23;20378;-69
2022/08/23 10:57:44;;;;;;;6.28;2.30;;;;;;;25.09;52.96;101357.09;6185708;23;20005;-69
2022/08/23 11:00:16;;;;;;;6.47;2.20;;;;;;;25.06;52.59;101357.72;6183837;23;20001;-69
2022/08/23 11:02:53;;;;;;;14.60;3.03;;;;;;;25.11;52.25;101350.13;6182685;23;20016;-70
2022/08/23 11:05:28;;;;;;;8.98;2.20;;;;;;;25.22;52.67;101338.81;6185117;23;20497;-72
2022/08/23 11:08:28;;;;;;;9.20;2.05;;;;;;;25.47;52.70;101345.75;6184557;23;20013;-68
2022/08/23 11:10:53;;;;;;;7.20;2.20;;;;;;;25.69;52.43;101346.88;6185204;23;20008;-68
2022/08/23 11:13:26;;;;;;;13.45;2.70;;;;;;;25.67;51.33;101344.41;6184198;23;20009;-68
2022/08/23 11:15:59;;;;;;;6.65;2.33;;;;;;;25.87;52.17;101345.03;6184843;23;20009;-68
2022/08/23 11:18:25;;;;;;;7.03;2.35;;;;;;;25.88;51.16;101353.03;6184264;23;20370;-71
2022/08/23 11:20:51;;;;;;;5.25;2.00;;;;;;;25.86;49.96;101354.47;6184749;23;20008;-69
2022/08/23 11:23:45;;;;;;;7.10;2.13;;;;;;;25.92;50.12;101353.19;6185016;23;20012;-68
2022/08/23 11:26:25;;;;;;;4.82;1.98;;;;;;;25.84;51.26;101354.78;6157010;23;20012;-68
2022/08/23 11:29:06;;;;;;;8.00;2.67;;;;;;;25.80;50.77;101349.06;6184250;23;20032;-68
2022/08/23 11:31:50;;;;;;;;;;;;;;;25.85;52.52;101355.59;6185868;23;20040;-68
2022/08/23 11:34:15;;;;;;;5.00;2.25;;;;;;;26.02;50.51;101347.41;6185294;23;19904;-69
2022/08/23 11:36:40;;;;;;;6.00;2.00;;;;;;;26.09;50.61;101352.50;6184929;23;20509;-69
2022/08/23 11:39:11;;;;;;;5.78;1.80;;;;;;;26.07;48.75;101358.34;6158531;23;20040;-69
2022/08/23 11:41:55;;;;;;;;;;;;;;;26.14;50.36;101349.59;6185781;23;20031;-68
2022/08/23 11:44:32;;;;;;;6.22;2.17;;;;;;;26.23;49.07;101347.69;6182916;23;20236;-69